Time;durP1;ratioP1;P1;durP2;ratioP2;P2;SDS_P1;SDS_P2;PMS_P1;PMS_P2;Temp;Humidity;BMP_temperature;BMP_pressure;BME280_temperature;BME280_humidity;BME280_pressure;Samples;Min_cycle;Max_cycle;Signal;HPM_P1;HPM_P2
2021/11/22 00:01:20;;;;;;;;;8.00;7.33;;;;;;;;5071079;28;45254;-85
2021/11/22 00:03:45;;;;;;;;;6.00;6.00;;;;;;;;5077326;28;47000;-85
2021/11/22 00:06:10;;;;;;;;;7.00;7.00;;;;;;;;5089276;27;45441;-86
2021/11/22 00:08:36;;;;;;;;;7.25;6.75;;;;;;;;5087933;28;45226;-85
2021/11/22 00:11:02;;;;;;;;;7.25;6.75;;;;;;;;5087366;27;45163;-87
2021/11/22 00:13:28;;;;;;;;;6.50;5.00;;;;;;;;5075758;28;47073;-85
2021/11/22 00:15:53;;;;;;;;;6.33;6.33;;;;;;;;5087355;27;45172;-84
2021/11/22 00:18:19;;;;;;;;;10.00;8.25;;;;;;;;5088259;28;45434;-85
2021/11/22 00:20:44;;;;;;;;;5.50;5.50;;;;;;;;5089403;27;45118;-85
2021/11/22 00:23:09;;;;;;;;;6.25;6.00;;;;;;;;5089161;27;47502;-86
2021/11/22 00:25:35;;;;;;;;;7.75;6.75;;;;;;;;5088829;28;45217;-85
2021/11/22 00:28:00;;;;;;;;;7.75;7.50;;;;;;;;5088976;27;45379;-85
2021/11/22 00:30:25;;;;;;;;;7.00;7.00;;;;;;;;5082857;28;45330;-85
2021/11/22 00:32:51;;;;;;;;;7.33;7.00;;;;;;;;5073850;28;47475;-86
2021/11/22 00:35:16;;;;;;;;;7.33;5.33;;;;;;;;5068925;28;45228;-85
2021/11/22 00:37:44;;;;;;;;;10.33;9.00;;;;;;;;5070481;28;45141;-85
2021/11/22 00:40:10;;;;;;;;;8.75;7.00;;;;;;;;5076773;28;45388;-86
2021/11/22 00:42:36;;;;;;;;;9.00;8.00;;;;;;;;5069315;28;47204;-85
2021/11/22 00:45:02;;;;;;;;;6.75;4.00;;;;;;;;5077971;28;45558;-88
2021/11/22 00:47:27;;;;;;;;;10.75;7.50;;;;;;;;5071835;28;45108;-88
2021/11/22 00:49:52;;;;;;;;;6.67;6.00;;;;;;;;5079718;28;45270;-86
2021/11/22 00:52:18;;;;;;;;;4.75;2.50;;;;;;;;5077975;28;47129;-86
2021/11/22 00:54:43;;;;;;;;;11.67;9.00;;;;;;;;5067837;28;45390;-85
2021/11/22 00:57:08;;;;;;;;;6.67;6.33;;;;;;;;5073649;28;45164;-86
2021/11/22 00:59:34;;;;;;;;;6.00;6.00;;;;;;;;5073788;28;45288;-87
2021/11/22 01:02:00;;;;;;;;;9.00;8.50;;;;;;;;5074535;28;47653;-89
2021/11/22 01:04:25;;;;;;;;;8.25;7.75;;;;;;;;5068285;28;45530;-87
2021/11/22 01:06:50;;;;;;;;;6.00;6.00;;;;;;;;5077328;28;45211;-86
2021/11/22 01:09:16;;;;;;;;;11.33;9.00;;;;;;;;5086594;28;45551;-86
2021/11/22 01:11:41;;;;;;;;;7.33;7.33;;;;;;;;5088286;28;47390;-89
2021/11/22 01:14:07;;;;;;;;;11.00;9.67;;;;;;;;5076006;28;45509;-85
2021/11/22 01:16:32;;;;;;;;;9.00;8.00;;;;;;;;5070945;28;45115;-87
2021/11/22 01:18:58;;;;;;;;;11.67;10.33;;;;;;;;5068755;28;45069;-86
2021/11/22 01:21:23;;;;;;;;;12.75;12.00;;;;;;;;5068115;28;47044;-89
2021/11/22 01:23:49;;;;;;;;;8.50;8.50;;;;;;;;5068604;28;45107;-85
2021/11/22 01:26:14;;;;;;;;;9.67;8.00;;;;;;;;5068970;28;45496;-86
2021/11/22 01:28:39;;;;;;;;;11.00;9.67;;;;;;;;5068562;28;45776;-87
2021/11/22 01:31:05;;;;;;;;;10.75;10.00;;;;;;;;5066748;28;46983;-86
2021/11/22 01:33:30;;;;;;;;;8.00;8.00;;;;;;;;5068778;28;45079;-86
2021/11/22 01:35:55;;;;;;;;;11.67;11.00;;;;;;;;5068507;28;45114;-86
2021/11/22 01:38:21;;;;;;;;;7.33;6.67;;;;;;;;5088210;27;45168;-84
2021/11/22 01:40:46;;;;;;;;;6.50;6.50;;;;;;;;5088373;28;46978;-86
2021/11/22 01:43:14;;;;;;;;;8.25;8.00;;;;;;;;5089449;28;45046;-85
2021/11/22 01:45:44;;;;;;;;;7.75;7.50;;;;;;;;5088221;28;45209;-84
2021/11/22 01:48:09;;;;;;;;;9.50;8.50;;;;;;;;5079758;27;45162;-85
2021/11/22 01:50:34;;;;;;;;;6.25;6.00;;;;;;;;5067659;28;47076;-85
2021/11/22 01:53:00;;;;;;;;;7.67;7.33;;;;;;;;5067720;28;45001;-85
2021/11/22 01:55:26;;;;;;;;;7.25;7.00;;;;;;;;5067774;28;45642;-85
2021/11/22 01:57:52;;;;;;;;;8.00;7.25;;;;;;;;5080591;28;46347;-86
2021/11/22 02:00:23;;;;;;;;;7.75;7.75;;;;;;;;5086478;28;47771;-85
2021/11/22 02:02:48;;;;;;;;;10.50;8.75;;;;;;;;5072550;28;45379;-89
2021/11/22 02:05:13;;;;;;;;;8.67;8.00;;;;;;;;5082482;28;45064;-85
2021/11/22 02:07:39;;;;;;;;;11.00;9.00;;;;;;;;5088214;27;44930;-85
2021/11/22 02:10:04;;;;;;;;;7.00;6.00;;;;;;;;5077796;27;47745;-85
2021/11/22 02:12:31;;;;;;;;;8.75;7.75;;;;;;;;5068631;28;45155;-85
2021/11/22 02:14:56;;;;;;;;;8.00;7.50;;;;;;;;5073098;28;45111;-85
2021/11/22 02:17:21;;;;;;;;;7.67;6.67;;;;;;;;5075610;28;45406;-85
2021/11/22 02:19:58;;;;;;;;;7.00;5.00;;;;;;;;5086741;27;47107;-85
2021/11/22 02:22:24;;;;;;;;;6.75;6.75;;;;;;;;5076998;27;45471;-87
2021/11/22 02:24:49;;;;;;;;;7.00;7.00;;;;;;;;5088372;28;45161;-86
2021/11/22 02:27:14;;;;;;;;;7.50;6.50;;;;;;;;5083092;27;45497;-87
2021/11/22 02:29:39;;;;;;;;;5.33;5.33;;;;;;;;5085739;27;47534;-84
2021/11/22 02:32:05;;;;;;;;;7.00;6.67;;;;;;;;5077918;27;45146;-85
2021/11/22 02:34:30;;;;;;;;;10.00;8.50;;;;;;;;5067942;28;45092;-85
2021/11/22 02:36:55;;;;;;;;;6.33;4.33;;;;;;;;5067178;28;45194;-89
2021/11/22 02:39:20;;;;;;;;;6.67;6.33;;;;;;;;5065329;28;47256;-85
2021/11/22 02:41:46;;;;;;;;;7.00;6.00;;;;;;;;5086112;28;45447;-88
2021/11/22 02:44:11;;;;;;;;;4.33;4.33;;;;;;;;5087714;28;45184;-88
2021/11/22 02:46:36;;;;;;;;;7.00;6.00;;;;;;;;5086561;27;45204;-85
2021/11/22 02:49:02;;;;;;;;;8.67;6.33;;;;;;;;5085225;28;46934;-88
2021/11/22 02:51:27;;;;;;;;;8.25;6.00;;;;;;;;5087059;27;45251;-85
2021/11/22 02:53:56;;;;;;;;;8.00;5.67;;;;;;;;5071772;28;45198;-86
2021/11/22 02:56:22;;;;;;;;;8.00;4.75;;;;;;;;5086010;28;45214;-86
2021/11/22 02:58:47;;;;;;;;;11.00;7.00;;;;;;;;5087089;28;47105;-89
2021/11/22 03:01:12;;;;;;;;;6.00;6.00;;;;;;;;5086136;28;45344;-89
2021/11/22 03:03:37;;;;;;;;;7.33;7.00;;;;;;;;5089209;27;45133;-85
2021/11/22 03:06:08;;;;;;;;;11.00;7.00;;;;;;;;5086555;28;45349;-86
2021/11/22 03:08:34;;;;;;;;;6.50;3.75;;;;;;;;5086098;27;47395;-86
2021/11/22 03:10:59;;;;;;;;;7.50;4.25;;;;;;;;5074491;28;45543;-88
2021/11/22 03:13:24;;;;;;;;;5.00;3.33;;;;;;;;5081188;28;45063;-87
2021/11/22 03:15:50;;;;;;;;;6.33;5.33;;;;;;;;5066912;28;45030;-88
2021/11/22 03:18:15;;;;;;;;;8.67;8.00;;;;;;;;5066386;28;47273;-85
2021/11/22 03:20:40;;;;;;;;;6.33;6.00;;;;;;;;5066706;28;45286;-85
2021/11/22 03:23:06;;;;;;;;;7.33;7.00;;;;;;;;5066236;28;45174;-85
2021/11/22 03:25:31;;;;;;;;;9.25;9.25;;;;;;;;5067238;28;45158;-84
2021/11/22 03:27:57;;;;;;;;;6.25;6.00;;;;;;;;5066535;28;47216;-85
2021/11/22 03:30:22;;;;;;;;;6.50;6.50;;;;;;;;5066134;28;45271;-85
2021/11/22 03:32:47;;;;;;;;;9.33;8.33;;;;;;;;5067235;28;45094;-84
2021/11/22 03:35:14;;;;;;;;;9.33;7.00;;;;;;;;5066324;28;45210;-84
2021/11/22 03:37:39;;;;;;;;;7.00;6.00;;;;;;;;5077717;28;45394;-85
2021/11/22 03:40:05;;;;;;;;;7.00;7.00;;;;;;;;5086804;27;45322;-86
2021/11/22 03:42:38;;;;;;;;;7.75;6.75;;;;;;;;5079617;27;45134;-87
2021/11/22 03:45:05;;;;;;;;;9.25;7.50;;;;;;;;5069826;28;45285;-84
2021/11/22 03:47:30;;;;;;;;;6.50;4.75;;;;;;;;5082928;28;47748;-88
2021/11/22 03:49:55;;;;;;;;;5.67;5.33;;;;;;;;5072474;28;45188;-86
2021/11/22 03:52:20;;;;;;;;;7.67;6.00;;;;;;;;5087796;27;45009;-86
2021/11/22 03:54:45;;;;;;;;;7.00;6.00;;;;;;;;5089659;28;45278;-86
2021/11/22 03:57:11;;;;;;;;;6.00;5.67;;;;;;;;5088274;27;47560;-87
2021/11/22 03:59:36;;;;;;;;;6.00;6.00;;;;;;;;5089609;27;45062;-88
2021/11/22 04:02:02;;;;;;;;;8.50;8.00;;;;;;;;5089666;28;45209;-86
2021/11/22 04:04:27;;;;;;;;;5.75;4.50;;;;;;;;5089801;27;45204;-87
2021/11/22 04:06:52;;;;;;;;;7.33;6.67;;;;;;;;5089672;28;47061;-85
2021/11/22 04:09:18;;;;;;;;;6.67;6.00;;;;;;;;5089583;27;45055;-85
2021/11/22 04:11:43;;;;;;;;;7.50;7.00;;;;;;;;5088182;27;45062;-86
2021/11/22 04:14:09;;;;;;;;;9.67;7.33;;;;;;;;5088178;28;45376;-86
2021/11/22 04:16:34;;;;;;;;;8.50;7.75;;;;;;;;5086720;27;47082;-86
2021/11/22 04:19:00;;;;;;;;;11.00;7.00;;;;;;;;5087979;27;45087;-86
2021/11/22 04:21:25;;;;;;;;;6.75;6.00;;;;;;;;5089231;27;45217;-85
2021/11/22 04:23:52;;;;;;;;;7.75;6.75;;;;;;;;5090424;28;45414;-86
2021/11/22 04:26:18;;;;;;;;;8.25;7.50;;;;;;;;5083219;28;47482;-85
2021/11/22 04:28:44;;;;;;;;;8.50;7.50;;;;;;;;5069663;28;45286;-86
2021/11/22 04:31:09;;;;;;;;;9.75;8.25;;;;;;;;5069378;28;45114;-86
2021/11/22 04:33:36;;;;;;;;;7.67;7.33;;;;;;;;5069310;28;45056;-88
2021/11/22 04:36:01;;;;;;;;;8.75;8.00;;;;;;;;5068607;28;46850;-85
2021/11/22 04:38:27;;;;;;;;;8.25;7.25;;;;;;;;5069758;28;45746;-90
2021/11/22 04:40:52;;;;;;;;;11.00;8.67;;;;;;;;5069426;28;45306;-87
2021/11/22 04:43:17;;;;;;;;;11.00;11.00;;;;;;;;5068625;28;45392;-86
2021/11/22 04:45:43;;;;;;;;;7.75;7.50;;;;;;;;5088075;28;46972;-85
2021/11/22 04:48:08;;;;;;;;;9.75;6.50;;;;;;;;5078603;27;45145;-85
2021/11/22 04:50:35;;;;;;;;;9.33;9.33;;;;;;;;5069472;28;45177;-86
2021/11/22 04:53:01;;;;;;;;;11.00;7.00;;;;;;;;5089201;27;44965;-86
2021/11/22 04:55:27;;;;;;;;;12.25;10.25;;;;;;;;5079229;28;47353;-84
2021/11/22 04:57:52;;;;;;;;;11.00;8.00;;;;;;;;5070086;28;45134;-87
2021/11/22 05:00:19;;;;;;;;;12.00;10.67;;;;;;;;5068944;28;45496;-89
2021/11/22 05:02:45;;;;;;;;;12.50;11.75;;;;;;;;5068552;28;45337;-89
2021/11/22 05:05:11;;;;;;;;;11.50;9.75;;;;;;;;5075951;28;47361;-87
2021/11/22 05:07:37;;;;;;;;;11.00;9.50;;;;;;;;5088965;28;45262;-86
2021/11/22 05:10:03;;;;;;;;;12.00;11.00;;;;;;;;5090882;27;45067;-88
2021/11/22 05:12:28;;;;;;;;;11.00;8.50;;;;;;;;5088944;28;45090;-86
2021/11/22 05:14:53;;;;;;;;;14.33;11.33;;;;;;;;5082503;27;47153;-87
2021/11/22 05:17:18;;;;;;;;;13.00;11.00;;;;;;;;5072569;28;45186;-85
2021/11/22 05:19:44;;;;;;;;;15.33;13.00;;;;;;;;5089118;28;45198;-85
2021/11/22 05:22:09;;;;;;;;;12.00;11.33;;;;;;;;5087733;28;45171;-86
2021/11/22 05:24:34;;;;;;;;;14.00;12.67;;;;;;;;5086590;28;46390;-85
2021/11/22 05:27:03;;;;;;;;;10.75;9.00;;;;;;;;5080020;28;45251;-85
2021/11/22 05:29:28;;;;;;;;;14.00;11.75;;;;;;;;5068079;28;45128;-84
2021/11/22 05:31:53;;;;;;;;;11.67;11.33;;;;;;;;5078124;28;45357;-86
2021/11/22 05:34:19;;;;;;;;;15.67;12.00;;;;;;;;5086868;27;47246;-85
2021/11/22 05:36:45;;;;;;;;;12.75;12.75;;;;;;;;5088455;28;45176;-87
2021/11/22 05:39:10;;;;;;;;;13.25;11.75;;;;;;;;5088192;27;45119;-87
2021/11/22 05:41:35;;;;;;;;;14.00;11.00;;;;;;;;5088557;28;45182;-85
2021/11/22 05:44:00;;;;;;;;;13.00;12.00;;;;;;;;5088498;28;47721;-86
2021/11/22 05:46:26;;;;;;;;;10.67;10.33;;;;;;;;5081128;28;45430;-88
2021/11/22 05:48:51;;;;;;;;;17.67;16.33;;;;;;;;5079533;28;45411;-89
2021/11/22 05:51:18;;;;;;;;;14.33;13.67;;;;;;;;5067201;28;45231;-87
2021/11/22 05:53:46;;;;;;;;;5.00;5.00;;;;;;;;5082349;28;47519;-88
2021/11/22 05:56:11;;;;;;;;;15.00;14.50;;;;;;;;5070188;28;45502;-88
2021/11/22 05:58:37;;;;;;;;;12.00;12.00;;;;;;;;5068054;28;45356;-88
2021/11/22 06:01:03;;;;;;;;;17.67;17.33;;;;;;;;5068614;28;44985;-85
2021/11/22 06:03:29;;;;;;;;;20.00;17.75;;;;;;;;5068427;28;47136;-86
2021/11/22 06:05:55;;;;;;;;;20.75;17.00;;;;;;;;5070622;28;45452;-87
2021/11/22 06:08:20;;;;;;;;;18.75;17.75;;;;;;;;5088220;28;45819;-85
2021/11/22 06:10:46;;;;;;;;;20.67;20.33;;;;;;;;5087101;28;45272;-86
2021/11/22 06:13:12;;;;;;;;;20.75;18.25;;;;;;;;5070440;28;47251;-88
2021/11/22 06:15:38;;;;;;;;;18.25;18.00;;;;;;;;5067096;28;45549;-84
2021/11/22 06:18:03;;;;;;;;;20.00;18.50;;;;;;;;5069494;28;45231;-85
2021/11/22 06:20:28;;;;;;;;;18.50;18.50;;;;;;;;5068345;28;45182;-86
2021/11/22 06:22:54;;;;;;;;;24.00;20.67;;;;;;;;5081773;28;47137;-86
2021/11/22 06:25:19;;;;;;;;;22.00;21.00;;;;;;;;5086977;28;45161;-85
2021/11/22 06:27:44;;;;;;;;;22.00;21.33;;;;;;;;5086268;28;45064;-85
2021/11/22 06:30:10;;;;;;;;;23.00;18.67;;;;;;;;5083625;28;45028;-86
2021/11/22 06:32:35;;;;;;;;;19.00;15.75;;;;;;;;5072341;28;46968;-85
2021/11/22 06:35:01;;;;;;;;;21.75;19.50;;;;;;;;5069933;28;45320;-86
2021/11/22 06:37:26;;;;;;;;;23.00;21.25;;;;;;;;5058530;28;46331;-85
2021/11/22 06:39:52;;;;;;;;;22.00;21.25;;;;;;;;5071229;28;45465;-85
2021/11/22 06:42:20;;;;;;;;;21.00;19.75;;;;;;;;5076037;28;47325;-87
2021/11/22 06:44:45;;;;;;;;;25.75;22.50;;;;;;;;5072970;28;45639;-86
2021/11/22 06:47:10;;;;;;;;;26.25;20.75;;;;;;;;5056886;28;46052;-86
2021/11/22 06:49:36;;;;;;;;;18.67;18.00;;;;;;;;5055239;27;45632;-86
2021/11/22 06:52:01;;;;;;;;;21.50;21.00;;;;;;;;5048377;28;47002;-86
2021/11/22 06:54:26;;;;;;;;;22.67;20.33;;;;;;;;5050701;28;45538;-85
2021/11/22 06:56:51;;;;;;;;;27.33;23.33;;;;;;;;5050122;28;45441;-85
2021/11/22 06:59:17;;;;;;;;;22.00;21.00;;;;;;;;5049228;28;45433;-88
2021/11/22 07:01:42;;;;;;;;;22.00;20.25;;;;;;;;5050080;28;47522;-87
2021/11/22 07:04:08;;;;;;;;;27.50;24.50;;;;;;;;5049785;28;45726;-86
2021/11/22 07:06:33;;;;;;;;;18.75;18.50;;;;;;;;5050042;28;45359;-86
2021/11/22 07:08:58;;;;;;;;;18.33;17.00;;;;;;;;5053154;28;45595;-86
2021/11/22 07:11:24;;;;;;;;;18.00;16.75;;;;;;;;5050630;28;47040;-87
2021/11/22 07:13:49;;;;;;;;;20.00;16.33;;;;;;;;5056096;28;45991;-85
2021/11/22 07:16:16;;;;;;;;;21.25;16.50;;;;;;;;5051531;28;45459;-84
2021/11/22 07:18:41;;;;;;;;;17.25;16.75;;;;;;;;5054733;28;45531;-87
2021/11/22 07:21:06;;;;;;;;;20.75;18.00;;;;;;;;5053683;28;45525;-85
2021/11/22 07:23:31;;;;;;;;;21.33;17.67;;;;;;;;5060080;27;45367;-87
2021/11/22 07:25:57;;;;;;;;;20.33;20.33;;;;;;;;5069312;27;45354;-90
2021/11/22 07:28:23;;;;;;;;;19.75;19.50;;;;;;;;5072931;28;45665;-86
2021/11/22 07:30:48;;;;;;;;;20.00;16.00;;;;;;;;5070256;28;47987;-88
2021/11/22 07:33:14;;;;;;;;;20.00;17.00;;;;;;;;5072376;28;45780;-86
2021/11/22 07:35:39;;;;;;;;;17.00;15.33;;;;;;;;5075167;27;45446;-86
2021/11/22 07:38:05;;;;;;;;;17.00;17.00;;;;;;;;5067628;28;45494;-85
2021/11/22 07:40:30;;;;;;;;;21.00;16.50;;;;;;;;5082275;27;46006;-87
2021/11/22 07:42:56;;;;;;;;;18.00;17.50;;;;;;;;5086255;28;45156;-87
2021/11/22 07:45:21;;;;;;;;;19.00;18.33;;;;;;;;5087203;28;45334;-87
2021/11/22 07:47:47;;;;;;;;;14.75;13.75;;;;;;;;5073110;28;45516;-89
2021/11/22 07:50:13;;;;;;;;;16.25;15.50;;;;;;;;5060424;28;48071;-85
2021/11/22 07:52:38;;;;;;;;;15.50;15.25;;;;;;;;5055150;28;45374;-88
2021/11/22 07:55:04;;;;;;;;;18.33;17.00;;;;;;;;5055641;28;45470;-89
2021/11/22 07:57:30;;;;;;;;;17.00;14.00;;;;;;;;5060209;28;45444;-90
2021/11/22 07:59:56;;;;;;;;;11.00;11.00;;;;;;;;5054318;28;47923;-86
2021/11/22 08:02:21;;;;;;;;;17.33;15.33;;;;;;;;5052580;28;45694;-87
2021/11/22 08:04:46;;;;;;;;;12.00;12.00;;;;;;;;5060750;28;45377;-85
2021/11/22 08:07:17;;;;;;;;;17.67;16.33;;;;;;;;5056625;28;45609;-85
2021/11/22 08:10:02;;;;;;;;;14.25;13.25;;;;;;;;5056547;28;48359;-85
2021/11/22 08:12:28;;;;;;;;;17.00;14.50;;;;;;;;5057765;28;45541;-87
2021/11/22 08:14:55;;;;;;;;;13.50;12.25;;;;;;;;5066522;28;45135;-86
2021/11/22 08:17:21;;;;;;;;;12.50;12.00;;;;;;;;5070419;27;45351;-83
2021/11/22 08:19:46;;;;;;;;;4.50;2.00;;;;;;;;5054719;28;46054;-86
2021/11/22 08:22:12;;;;;;;;;13.25;13.25;;;;;;;;5055264;28;44836;-84
2021/11/22 08:24:37;;;;;;;;;10.33;9.33;;;;;;;;5061183;28;45403;-85
2021/11/22 08:27:02;;;;;;;;;13.25;12.25;;;;;;;;5067521;27;45599;-85
2021/11/22 08:29:28;;;;;;;;;13.50;11.50;;;;;;;;5056549;28;46903;-84
2021/11/22 08:31:53;;;;;;;;;9.33;9.33;;;;;;;;5056887;28;45499;-85
2021/11/22 08:34:18;;;;;;;;;11.67;10.67;;;;;;;;5070005;27;45195;-86
2021/11/22 08:36:43;;;;;;;;;12.00;9.33;;;;;;;;5072027;28;45767;-85
2021/11/22 08:39:09;;;;;;;;;17.33;13.67;;;;;;;;5073892;27;47211;-89
2021/11/22 08:41:34;;;;;;;;;10.33;9.00;;;;;;;;5072854;27;45485;-83
2021/11/22 08:43:59;;;;;;;;;12.67;8.67;;;;;;;;5074999;27;45449;-88
2021/11/22 08:46:24;;;;;;;;;12.00;11.33;;;;;;;;5069215;28;45581;-86
2021/11/22 08:48:50;;;;;;;;;12.25;11.25;;;;;;;;5069374;28;46051;-86
2021/11/22 08:51:15;;;;;;;;;13.33;12.00;;;;;;;;5075524;28;46119;-85
2021/11/22 08:53:40;;;;;;;;;13.00;12.75;;;;;;;;5076117;27;45827;-86
2021/11/22 08:56:06;;;;;;;;;14.00;13.00;;;;;;;;5085702;27;45505;-88
2021/11/22 08:58:31;;;;;;;;;13.00;12.00;;;;;;;;5082980;27;47726;-87
2021/11/22 09:00:56;;;;;;;;;9.00;7.33;;;;;;;;5068062;28;45154;-86
2021/11/22 09:03:21;;;;;;;;;12.33;11.00;;;;;;;;5067073;28;45241;-86
2021/11/22 09:05:47;;;;;;;;;13.33;11.67;;;;;;;;5067895;28;45425;-86
2021/11/22 09:08:13;;;;;;;;;9.00;8.00;;;;;;;;5066891;28;47061;-86
2021/11/22 09:10:38;;;;;;;;;9.75;8.75;;;;;;;;5077011;28;45564;-85
2021/11/22 09:13:04;;;;;;;;;9.00;8.67;;;;;;;;5059475;28;45500;-85
2021/11/22 09:15:30;;;;;;;;;14.75;13.00;;;;;;;;5069884;28;45131;-85
2021/11/22 09:17:56;;;;;;;;;13.75;13.00;;;;;;;;5088418;28;47214;-86
2021/11/22 09:20:23;;;;;;;;;9.50;9.50;;;;;;;;5086307;27;45113;-86
2021/11/22 09:22:48;;;;;;;;;12.00;12.00;;;;;;;;5054019;28;45523;-85
2021/11/22 09:25:13;;;;;;;;;9.75;8.75;;;;;;;;5064763;28;45595;-87
2021/11/22 09:27:39;;;;;;;;;9.00;8.33;;;;;;;;5050812;28;47046;-87
2021/11/22 09:30:05;;;;;;;;;8.00;8.00;;;;;;;;5049130;28;45766;-86
2021/11/22 09:32:31;;;;;;;;;12.00;10.25;;;;;;;;5057126;28;45486;-85
2021/11/22 09:34:56;;;;;;;;;7.33;7.33;;;;;;;;5062925;28;45443;-87
2021/11/22 09:37:21;;;;;;;;;9.67;9.00;;;;;;;;5062128;28;47750;-86
2021/11/22 09:39:47;;;;;;;;;9.00;8.00;;;;;;;;5053640;28;45485;-86
2021/11/22 09:42:13;;;;;;;;;9.00;8.00;;;;;;;;5053064;28;45507;-86
2021/11/22 09:44:38;;;;;;;;;11.25;8.25;;;;;;;;5049754;28;45617;-85
2021/11/22 09:47:04;;;;;;;;;9.00;8.00;;;;;;;;5069176;28;46912;-84
2021/11/22 09:49:29;;;;;;;;;9.00;8.33;;;;;;;;5067883;28;45185;-86
2021/11/22 09:51:55;;;;;;;;;9.00;8.00;;;;;;;;5059628;28;45227;-86
2021/11/22 09:54:20;;;;;;;;;7.00;7.00;;;;;;;;5051839;28;45691;-85
2021/11/22 09:56:49;;;;;;;;;8.00;8.00;;;;;;;;5054673;28;47108;-88
2021/11/22 09:59:14;;;;;;;;;9.00;9.00;;;;;;;;5067337;28;45673;-85
2021/11/22 10:01:39;;;;;;;;;8.67;8.00;;;;;;;;5067555;28;45159;-85
2021/11/22 10:04:05;;;;;;;;;7.00;6.67;;;;;;;;5076825;27;45381;-86
2021/11/22 10:06:49;;;;;;;;;12.00;8.00;;;;;;;;5078513;28;47947;-85
2021/11/22 10:09:29;;;;;;;;;13.50;9.00;;;;;;;;5050692;28;45702;-84
2021/11/22 10:11:55;;;;;;;;;8.00;7.00;;;;;;;;5050645;28;45573;-85
2021/11/22 10:14:27;;;;;;;;;8.75;8.00;;;;;;;;5063365;28;45791;-86
2021/11/22 10:16:52;;;;;;;;;11.00;9.25;;;;;;;;5062995;28;48360;-86
2021/11/22 10:19:21;;;;;;;;;6.67;6.67;;;;;;;;5064588;28;45688;-85
2021/11/22 10:21:47;;;;;;;;;7.00;6.25;;;;;;;;5061122;28;45284;-84
2021/11/22 10:24:12;;;;;;;;;3.00;3.00;;;;;;;;5073853;28;45277;-84
2021/11/22 10:26:42;;;;;;;;;13.00;10.00;;;;;;;;5066749;28;45795;-86
2021/11/22 10:29:09;;;;;;;;;8.00;8.00;;;;;;;;5065963;28;45674;-85
2021/11/22 10:31:35;;;;;;;;;9.50;9.50;;;;;;;;5067403;28;45199;-82
2021/11/22 10:34:01;;;;;;;;;8.75;8.50;;;;;;;;5067945;28;45569;-85
2021/11/22 10:36:27;;;;;;;;;9.00;8.75;;;;;;;;5068599;28;45297;-84
2021/11/22 10:38:58;;;;;;;;;9.25;7.75;;;;;;;;5066726;28;45091;-85
2021/11/22 10:41:25;;;;;;;;;8.50;8.00;;;;;;;;5077104;28;44918;-84
2021/11/22 10:43:55;;;;;;;;;12.25;8.00;;;;;;;;5088854;28;45263;-86
2021/11/22 10:46:33;;;;;;;;;7.75;7.50;;;;;;;;5087379;27;47541;-84
2021/11/22 10:49:11;;;;;;;;;7.00;6.25;;;;;;;;5085082;28;45121;-84
2021/11/22 10:51:41;;;;;;;;;9.00;6.75;;;;;;;;5079120;28;45239;-85
2021/11/22 10:54:09;;;;;;;;;7.00;6.00;;;;;;;;5067411;28;45134;-85
2021/11/22 10:56:37;;;;;;;;;7.25;7.00;;;;;;;;5070105;28;46139;-84
2021/11/22 10:59:07;;;;;;;;;8.75;8.75;;;;;;;;5068112;28;45786;-83
2021/11/22 11:01:36;;;;;;;;;9.25;9.00;;;;;;;;5068696;28;45213;-85
2021/11/22 11:04:21;;;;;;;;;8.75;8.00;;;;;;;;5055570;28;45372;-85
2021/11/22 11:06:58;;;;;;;;;10.00;8.50;;;;;;;;5050847;28;47111;-85
2021/11/22 11:09:25;;;;;;;;;8.25;7.50;;;;;;;;5051802;28;45667;-85
2021/11/22 11:12:02;;;;;;;;;7.25;7.00;;;;;;;;5051202;28;45410;-86
2021/11/22 11:14:28;;;;;;;;;9.75;9.00;;;;;;;;5051319;28;45854;-85
2021/11/22 11:16:54;;;;;;;;;7.75;7.00;;;;;;;;5051717;28;47243;-84
2021/11/22 11:19:19;;;;;;;;;11.50;9.75;;;;;;;;5051558;28;45826;-84
2021/11/22 11:21:46;;;;;;;;;6.33;6.00;;;;;;;;5052395;28;45489;-87
2021/11/22 11:24:13;;;;;;;;;9.50;8.50;;;;;;;;5051728;28;45532;-85
2021/11/22 11:26:39;;;;;;;;;14.50;12.00;;;;;;;;5061361;28;47954;-86
2021/11/22 11:29:05;;;;;;;;;8.25;7.25;;;;;;;;5050852;28;45487;-87
2021/11/22 11:31:31;;;;;;;;;12.00;11.50;;;;;;;;5052147;28;45589;-84
2021/11/22 11:33:56;;;;;;;;;8.00;7.50;;;;;;;;5051181;28;45920;-87
2021/11/22 11:36:32;;;;;;;;;9.00;8.50;;;;;;;;5050229;28;47685;-84
2021/11/22 11:39:00;;;;;;;;;8.25;7.75;;;;;;;;5049977;28;45786;-85
2021/11/22 11:41:28;;;;;;;;;7.50;7.00;;;;;;;;5050709;28;45375;-86
2021/11/22 11:44:02;;;;;;;;;10.75;8.50;;;;;;;;5051927;28;45564;-84
2021/11/22 11:46:51;;;;;;;;;8.50;8.25;;;;;;;;5049903;28;47654;-85
2021/11/22 11:49:17;;;;;;;;;9.50;9.50;;;;;;;;5057631;28;45887;-85
2021/11/22 11:51:48;;;;;;;;;9.00;8.33;;;;;;;;5054575;28;45729;-85
2021/11/22 11:54:24;;;;;;;;;8.75;8.50;;;;;;;;5060327;28;45581;-84
2021/11/22 11:56:57;;;;;;;;;13.50;10.00;;;;;;;;5060916;28;48045;-85
2021/11/22 11:59:49;;;;;;;;;10.75;9.50;;;;;;;;5054114;28;45460;-86
2021/11/22 12:02:19;;;;;;;;;8.00;8.00;;;;;;;;5046255;28;45267;-86
2021/11/22 12:04:44;;;;;;;;;8.75;8.75;;;;;;;;5051353;28;45792;-86
2021/11/22 12:07:09;;;;;;;;;10.00;9.33;;;;;;;;5049221;28;47213;-85
2021/11/22 12:09:44;;;;;;;;;12.25;9.75;;;;;;;;5049551;28;45550;-85
2021/11/22 12:12:12;;;;;;;;;10.50;9.25;;;;;;;;5049134;28;45565;-85
2021/11/22 12:14:57;;;;;;;;;10.50;9.50;;;;;;;;5055570;28;45689;-86
2021/11/22 12:17:49;;;;;;;;;16.50;14.25;;;;;;;;5064674;28;47170;-85
2021/11/22 12:20:21;;;;;;;;;13.75;10.25;;;;;;;;5049136;28;45574;-85
2021/11/22 12:22:50;;;;;;;;;12.75;9.75;;;;;;;;5052949;28;45431;-84
2021/11/22 12:25:34;;;;;;;;;8.50;8.50;;;;;;;;5052765;28;45713;-84
2021/11/22 12:28:01;;;;;;;;;9.00;8.00;;;;;;;;5052913;28;47164;-86
2021/11/22 12:30:29;;;;;;;;;14.75;13.50;;;;;;;;5052623;28;45824;-84
2021/11/22 12:33:14;;;;;;;;;10.75;10.00;;;;;;;;5052775;28;45562;-86
2021/11/22 12:35:40;;;;;;;;;8.50;7.00;;;;;;;;5055154;28;45719;-83
2021/11/22 12:38:17;;;;;;;;;9.50;9.25;;;;;;;;5071638;28;47135;-85
2021/11/22 12:40:43;;;;;;;;;10.75;10.25;;;;;;;;5072821;27;45811;-84
2021/11/22 12:43:09;;;;;;;;;10.00;9.25;;;;;;;;5072076;28;45844;-85
2021/11/22 12:45:34;;;;;;;;;14.00;10.67;;;;;;;;5072833;28;45837;-84
2021/11/22 12:48:19;;;;;;;;;10.00;9.33;;;;;;;;5071485;28;48270;-84
2021/11/22 12:50:55;;;;;;;;;11.25;11.25;;;;;;;;5071413;28;45875;-85
2021/11/22 12:53:21;;;;;;;;;10.00;9.75;;;;;;;;5067643;28;45899;-86
2021/11/22 12:55:47;;;;;;;;;12.00;9.00;;;;;;;;5066891;27;45641;-86
2021/11/22 12:58:14;;;;;;;;;11.50;10.75;;;;;;;;5071472;28;47137;-87
2021/11/22 13:00:40;;;;;;;;;13.00;11.00;;;;;;;;5070015;28;46053;-85
2021/11/22 13:03:08;;;;;;;;;12.25;9.75;;;;;;;;5070468;27;45375;-86
2021/11/22 13:05:47;;;;;;;;;13.25;11.25;;;;;;;;5069932;28;45641;-86
2021/11/22 13:08:19;;;;;;;;;15.75;13.50;;;;;;;;5069626;27;48010;-86
2021/11/22 13:10:46;;;;;;;;;16.00;13.75;;;;;;;;5069860;27;45623;-86
2021/11/22 13:13:14;;;;;;;;;10.25;9.75;;;;;;;;5070098;28;45448;-86
2021/11/22 13:18:53;;;;;;;;;7.00;7.00;;;;;;;;5068752;27;46242;-86
2021/11/22 13:21:33;;;;;;;;;13.75;12.25;;;;;;;;5068581;28;45364;-86
2021/11/22 13:24:06;;;;;;;;;11.25;10.75;;;;;;;;5069779;28;45585;-86
2021/11/22 13:26:32;;;;;;;;;11.00;10.25;;;;;;;;5069859;28;45519;-86
2021/11/22 13:29:16;;;;;;;;;16.75;13.75;;;;;;;;5069500;28;47379;-86
2021/11/22 13:31:46;;;;;;;;;15.50;14.50;;;;;;;;5069953;28;45704;-86
2021/11/22 13:34:14;;;;;;;;;12.25;10.00;;;;;;;;5069890;28;45552;-86
2021/11/22 13:36:41;;;;;;;;;10.75;9.25;;;;;;;;5070142;28;45639;-86
2021/11/22 13:39:17;;;;;;;;;9.25;9.00;;;;;;;;5069432;28;48203;-86
2021/11/22 13:42:00;;;;;;;;;13.50;13.50;;;;;;;;5069463;27;45504;-86
2021/11/22 13:44:28;;;;;;;;;14.50;12.25;;;;;;;;5069262;28;45358;-86
2021/11/22 13:46:54;;;;;;;;;13.75;13.25;;;;;;;;5069645;27;45493;-86
2021/11/22 13:49:19;;;;;;;;;13.25;11.75;;;;;;;;5068971;27;47208;-86
2021/11/22 13:51:45;;;;;;;;;14.33;11.00;;;;;;;;5069212;28;45495;-85
2021/11/22 13:54:16;;;;;;;;;14.75;12.75;;;;;;;;5069273;27;46045;-86
2021/11/22 13:56:41;;;;;;;;;13.00;12.25;;;;;;;;5070013;27;45406;-86
2021/11/22 13:59:23;;;;;;;;;15.67;14.67;;;;;;;;5068679;27;47041;-86
2021/11/22 14:01:50;;;;;;;;;13.25;11.00;;;;;;;;5069550;28;45827;-85
2021/11/22 14:04:16;;;;;;;;;14.50;12.25;;;;;;;;5068683;28;45516;-86
2021/11/22 14:06:42;;;;;;;;;14.00;12.25;;;;;;;;5069567;27;45524;-87
2021/11/22 14:09:07;;;;;;;;;14.00;12.00;;;;;;;;5068966;28;47443;-86
2021/11/22 14:11:32;;;;;;;;;16.25;14.25;;;;;;;;5069313;28;45390;-86
2021/11/22 14:14:00;;;;;;;;;15.33;11.67;;;;;;;;5068858;28;45561;-86
2021/11/22 14:16:27;;;;;;;;;16.75;15.00;;;;;;;;5068306;27;45667;-86
2021/11/22 14:18:53;;;;;;;;;12.50;12.00;;;;;;;;5069065;28;47456;-86
2021/11/22 14:21:34;;;;;;;;;16.75;14.75;;;;;;;;5067691;27;45425;-86
2021/11/22 14:24:14;;;;;;;;;15.50;12.00;;;;;;;;5070672;27;45468;-85
2021/11/22 14:26:40;;;;;;;;;13.75;13.00;;;;;;;;5070784;28;45324;-86
2021/11/22 14:29:25;;;;;;;;;14.75;12.00;;;;;;;;5067813;28;47148;-86
2021/11/22 14:32:01;;;;;;;;;14.00;13.00;;;;;;;;5068707;27;45694;-86
2021/11/22 14:34:26;;;;;;;;;11.25;10.25;;;;;;;;5068526;28;45454;-85